| time (UTC) | temp C | wind direction | speed KPH | gust KPH | rain 1hr cm | rain 24hr cm | rain mn cm | humidity % | barometer mb |
| 20260906203341 | 31 | 175 | 12.9 | 20.9 | 0.00 | 1.45 | 1.45 | 1 | 1016.1 |
| 20260906202838 | 31 | 203 | 6.4 | 17.7 | 0.00 | 1.45 | 1.45 | 1 | 1016.2 |
| 20260906202332 | 30 | 188 | 4.8 | 19.3 | 0.00 | 1.45 | 1.45 | 1 | 1016.2 |
| 20260906201832 | 31 | 208 | 6.4 | 20.9 | 0.00 | 1.45 | 1.45 | 1 | 1016.4 |
| 20260906201327 | 30 | 180 | 8.0 | 17.7 | 0.00 | 1.45 | 1.45 | 1 | 1016.4 |
| 20260906200822 | 30 | 181 | 16.1 | 22.5 | 0.00 | 1.45 | 1.45 | 1 | 1016.5 |
| 20260906200318 | 30 | 193 | 11.3 | 12.9 | 0.00 | 1.45 | 1.45 | 1 | 1016.7 |
| 20260906195813 | 30 | 162 | 6.4 | 16.1 | 0.00 | 1.45 | 1.45 | 1 | 1016.5 |
| 20260906195309 | 30 | 180 | 8.0 | 17.7 | 0.00 | 1.45 | 1.45 | 1 | 1016.8 |
| 20260906194805 | 29 | 166 | 8.0 | 20.9 | 0.00 | 1.45 | 1.45 | 1 | 1016.8 |
| 20260906194301 | 28 | 180 | 3.2 | 14.5 | 0.00 | 1.45 | 1.45 | 1 | 1017.0 |
| 20260906193755 | 28 | 160 | 6.4 | 32.2 | 0.00 | 1.45 | 1.45 | 1 | 1017.4 |
| 20260906193250 | 28 | 132 | 30.6 | 37.0 | 0.00 | 1.45 | 1.45 | 1 | 1017.7 |
| 20260906192746 | 28 | 97 | 19.3 | 35.4 | 0.00 | 1.45 | 1.45 | 1 | 1017.6 |
| 20260906192246 | 28 | 135 | 4.8 | 29.0 | 0.00 | 1.45 | 1.45 | 1 | 1017.9 |
| 20260906191745 | 28 | 105 | 12.9 | 27.4 | 0.00 | 1.45 | 1.45 | 1 | 1017.7 |
| 20260906191240 | 28 | 154 | 4.8 | 27.4 | 0.00 | 1.45 | 1.45 | 1 | 1018.0 |
| 20260906190734 | 28 | 108 | 9.7 | 19.3 | 0.00 | 1.45 | 1.45 | 1 | 1018.0 |
| 20260906190228 | 27 | 115 | 19.3 | 19.3 | 0.00 | 1.45 | 1.45 | 1 | 1017.8 |
| 20260906185727 | 28 | 135 | 6.4 | 16.1 | 0.00 | 1.45 | 1.45 | 1 | 1017.8 |
| 20260906185227 | 28 | 177 | 8.0 | 12.9 | 0.00 | 1.45 | 1.45 | 1 | 1017.7 |
| 20260906184721 | 28 | 119 | 17.7 | 17.7 | 0.00 | 1.45 | 1.45 | 1 | 1017.9 |
| 20260906184217 | 28 | 168 | 1.6 | 11.3 | 0.00 | 1.45 | 1.45 | 1 | 1017.9 |
| 20260906183713 | 28 | 156 | 0.0 | 11.3 | 0.00 | 1.45 | 1.45 | 1 | 1018.0 |
| 20260906183209 | 28 | 121 | 12.9 | 14.5 | 0.00 | 1.45 | 1.45 | 1 | 1018.2 |
| 20260906182708 | 28 | 105 | 3.2 | 16.1 | 0.00 | 1.45 | 1.45 | 1 | 1018.2 |
| 20260906182204 | 27 | 177 | 4.8 | 11.3 | 0.00 | 1.45 | 1.45 | 1 | 1018.3 |
| 20260906181659 | 27 | 123 | 3.2 | 19.3 | 0.00 | 1.45 | 1.45 | 1 | 1018.4 |
| 20260906181155 | 27 | 131 | 4.8 | 14.5 | 0.00 | 1.45 | 1.45 | 1 | 1018.6 |
| 20260906180650 | 27 | 172 | 0.0 | 9.7 | 0.00 | 1.45 | 1.45 | 1 | 1018.6 |
| 20260906180145 | 26 | 125 | 8.0 | 12.9 | 0.00 | 1.45 | 1.45 | 1 | 1018.7 |
| 20260906175643 | 25 | 147 | 3.2 | 11.3 | 0.00 | 1.45 | 1.45 | 1 | 1018.9 |
| 20260906175138 | 25 | 143 | 3.2 | 8.0 | 0.00 | 1.45 | 1.45 | 1 | 1018.9 |
| 20260906174636 | 24 | 90 | 3.2 | 6.4 | 0.00 | 1.45 | 1.45 | 1 | 1019.1 |
| 20260906174132 | 23 | 105 | 1.6 | 4.8 | 0.00 | 1.45 | 1.45 | 1 | 1019.2 |
| 20260906173627 | 21 | 198 | 0.0 | 4.8 | 0.00 | 1.45 | 1.45 | 1 | 1019.2 |
| 20260906173122 | 21 | 127 | 4.8 | 8.0 | 0.00 | 1.45 | 1.45 | 1 | 1019.4 |
| 20260906172621 | 21 | 107 | 3.2 | 11.3 | 0.00 | 1.45 | 1.45 | 1 | 1019.5 |
| 20260906172117 | 21 | 119 | 6.4 | 9.7 | 0.00 | 1.45 | 1.45 | 1 | 1020.0 |
| 20260906171616 | 21 | 111 | 4.8 | 11.3 | 0.00 | 1.45 | 1.45 | 1 | 1020.4 |
| 20260906171112 | 20 | 85 | 6.4 | 6.4 | 0.00 | 1.45 | 1.45 | 1 | 1020.5 |
| 20260906170609 | 20 | 90 | 1.6 | 17.7 | 0.00 | 1.45 | 1.45 | 1 | 1020.7 |
| 20260906165558 | 20 | 132 | 6.4 | 17.7 | 0.00 | 1.45 | 1.45 | 1 | 1020.8 |
| 20260906165053 | 20 | 115 | 6.4 | 19.3 | 0.05 | 1.45 | 1.45 | 1 | 1020.8 |
| 20260906164552 | 19 | 97 | 8.0 | 16.1 | 0.13 | 1.45 | 1.45 | 1 | 1021.2 |
| 20260906164048 | 19 | 127 | 9.7 | 17.7 | 0.05 | 1.45 | 1.45 | 1 | 1021.5 |
| 20260906163543 | 19 | 129 | 11.3 | 16.1 | 0.05 | 1.45 | 1.45 | 1 | 1021.6 |
| 20260906163039 | 19 | 126 | 8.0 | 20.9 | 0.36 | 1.45 | 1.45 | 1 | 1021.6 |
| 20260906162536 | 18 | 144 | 3.2 | 14.5 | 0.53 | 1.42 | 1.42 | 1 | 1022.0 |
| 20260906162031 | 19 | 147 | 0.0 | 8.0 | 0.43 | 1.37 | 1.37 | 1 | 1022.7 |
| 20260906161526 | 19 | 132 | 3.2 | 12.9 | 0.18 | 1.32 | 1.32 | 1 | 1023.1 |
| 20260906161025 | 19 | 116 | 4.8 | 11.3 | 0.13 | 1.30 | 1.30 | 1 | 1022.7 |
| 20260906160524 | 19 | 75 | 3.2 | 11.3 | 0.18 | 1.27 | 1.27 | 1 | 1022.7 |
| 20260906160023 | 19 | 109 | 3.2 | 16.1 | 0.89 | 1.27 | 1.27 | 1 | 1022.5 |
| 20260906155520 | 19 | 184 | 3.2 | 17.7 | 1.93 | 1.24 | 1.24 | 1 | 1022.0 |
| 20260906155017 | 19 | 108 | 12.9 | 19.3 | 2.46 | 1.09 | 1.09 | 1 | 1021.6 |
| 20260906154512 | 18 | 196 | 9.7 | 19.3 | 1.93 | 0.86 | 0.86 | 1 | 1021.1 |
| 20260906154011 | 18 | 218 | 8.0 | 20.9 | 2.16 | 0.64 | 0.64 | 1 | 1021.1 |
| 20260906153509 | 18 | 193 | 19.3 | 35.4 | 2.29 | 0.51 | 0.51 | 1 | 1020.9 |
| 20260906153005 | 20 | 196 | 20.9 | 38.6 | 0.97 | 0.23 | 0.23 | 1 | 1020.0 |
| 20260906152459 | 20 | 212 | 6.4 | 17.7 | 0.43 | 0.10 | 0.10 | 1 | 1020.1 |
| 20260906151958 | 20 | 218 | 4.8 | 14.5 | 0.05 | 0.05 | 0.05 | 1 | 1020.1 |
| 20260906151454 | 20 | 174 | 11.3 | 20.9 | 0.00 | 0.05 | 0.05 | 1 | 1020.0 |
| 20260906150950 | 20 | 106 | 11.3 | 16.1 | 0.00 | 0.05 | 0.05 | 1 | 1020.1 |
| 20260906150445 | 20 | 179 | 8.0 | 19.3 | 0.05 | 0.05 | 0.05 | 1 | 1019.9 |
| 20260906145944 | 20 | 189 | 3.2 | 16.1 | 0.05 | 0.03 | 0.03 | 1 | 1020.0 |
| 20260906145444 | 20 | 171 | 16.1 | 27.4 | 0.18 | 0.03 | 0.03 | 1 | 1020.1 |
| 20260906144938 | 21 | 182 | 9.7 | 29.0 | 0.05 | 0.00 | 0.00 | 1 | 1020.5 |
| 20260906144433 | 23 | 165 | 11.3 | 20.9 | 0.00 | 0.00 | 0.00 | 1 | 1019.9 |
| 20260906143929 | 23 | 118 | 6.4 | 11.3 | 0.00 | 0.00 | 0.00 | 1 | 1019.9 |
| 20260906143424 | 23 | 127 | 6.4 | 16.1 | 0.00 | 0.00 | 0.00 | 1 | 1019.7 |
| 20260906142920 | 23 | 135 | 8.0 | 14.5 | 0.00 | 0.00 | 0.00 | 1 | 1019.7 |
| 20260906142419 | 23 | 90 | 6.4 | 12.9 | 0.00 | 0.00 | 0.00 | 1 | 1019.3 |
| 20260906141914 | 23 | 180 | 0.0 | 3.2 | 0.00 | 0.00 | 0.00 | 1 | 1018.8 |
| 20260906141414 | 23 | 94 | 0.0 | 4.8 | 0.00 | 0.00 | 0.00 | 1 | 1018.6 |
| 20260906140908 | 23 | 90 | 0.0 | 4.8 | 0.00 | 0.00 | 0.00 | 1 | 1018.8 |
| 20260906140403 | 23 | 66 | 3.2 | 3.2 | 0.00 | 0.00 | 0.00 | 1 | 1018.4 |
| 20260906135901 | 23 | 5 | 1.6 | 3.2 | 0.00 | 0.00 | 0.00 | 1 | 1018.2 |
| 20260906135354 | 23 | 324 | 3.2 | 3.2 | 0.00 | 0.00 | 0.00 | 1 | 1018.2 |
| 20260906134850 | 23 | 331 | 1.6 | 4.8 | 0.00 | 0.00 | 0.00 | 1 | 1018.2 |
| 20260906134345 | 23 | 270 | 4.8 | 4.8 | 0.00 | 0.00 | 0.00 | 1 | 1018.0 |
| 20260906133841 | 23 | 285 | 4.8 | 4.8 | 0.00 | 0.00 | 0.00 | 1 | 1017.6 |
| 20260906133336 | 23 | 259 | 3.2 | 4.8 | 0.00 | 0.00 | 0.00 | 1 | 1017.8 |
| 20260906132831 | 23 | 241 | 4.8 | 8.0 | 0.00 | 0.00 | 0.00 | 1 | 1018.1 |
| 20260906132321 | 23 | 264 | 3.2 | 3.2 | 0.00 | 0.00 | 0.00 | 1 | 1018.0 |
| 20260906131816 | 23 | 109 | 4.8 | 4.8 | 0.00 | 0.00 | 0.00 | 1 | 1018.4 |
| 20260906131312 | 23 | 77 | 3.2 | 6.4 | 0.00 | 0.00 | 0.00 | 1 | 1018.1 |
| 20260906130808 | 23 | 99 | 0.0 | 3.2 | 0.00 | 0.00 | 0.00 | 1 | 1018.2 |
| 20260906130307 | 23 | 103 | 1.6 | 4.8 | 0.00 | 0.00 | 0.00 | 1 | 1018.0 |
| 20260906125806 | 23 | 180 | 0.0 | 1.6 | 0.00 | 0.00 | 0.00 | 1 | 1018.1 |
| 20260906125306 | 23 | 90 | 0.0 | 3.2 | 0.00 | 0.00 | 0.00 | 1 | 1017.7 |
| 20260906124758 | 23 | 95 | 3.2 | 6.4 | 0.00 | 0.00 | 0.00 | 1 | 1017.8 |
| 20260906124254 | 23 | 90 | 1.6 | 4.8 | 0.00 | 0.00 | 0.00 | 1 | 1017.5 |
| 20260906123753 | 23 | 90 | 3.2 | 6.4 | 0.00 | 0.00 | 0.00 | 1 | 1017.4 |
| 20260906123248 | 23 | 98 | 8.0 | 9.7 | 0.00 | 0.00 | 0.00 | 1 | 1017.2 |
| 20260906122748 | 23 | 95 | 6.4 | 8.0 | 0.00 | 0.00 | 0.00 | 1 | 1017.2 |
| 20260906122243 | 23 | 90 | 4.8 | 4.8 | 0.00 | 0.00 | 0.00 | 1 | 1016.9 |
| 20260906121740 | 24 | 111 | 4.8 | 4.8 | 0.00 | 0.00 | 0.00 | 1 | 1016.7 |
| 20260906121236 | 24 | 93 | 4.8 | 8.0 | 0.00 | 0.00 | 0.00 | 1 | 1016.8 |
| 20260906120731 | 24 | 114 | 4.8 | 6.4 | 0.00 | 0.00 | 0.00 | 1 | 1016.8 |
| 20260906120228 | 25 | 116 | 4.8 | 6.4 | 0.00 | 0.00 | 0.00 | 1 | 1016.9 |
| 20260906115723 | 24 | 96 | 3.2 | 4.8 | 0.00 | 0.00 | 0.00 | 1 | 1017.0 |
| 20260906115218 | 24 | 124 | 4.8 | 4.8 | 0.00 | 0.00 | 0.00 | 1 | 1017.0 |
| 20260906114717 | 24 | 78 | 3.2 | 4.8 | 0.00 | 0.00 | 0.00 | 1 | 1016.8 |
| 20260906114212 | 24 | 79 | 3.2 | 4.8 | 0.00 | 0.00 | 0.00 | 1 | 1017.0 |
| 20260906113708 | 24 | 98 | 1.6 | 3.2 | 0.00 | 0.00 | 0.00 | 1 | 1016.9 |
| 20260906113207 | 24 | 346 | 0.0 | 1.6 | 0.00 | 0.00 | 0.00 | 1 | 1017.0 |
| 20260906112707 | 24 | 98 | 1.6 | 6.4 | 0.00 | 0.00 | 0.00 | 1 | 1016.9 |
| 20260906112204 | 24 | 90 | 0.0 | 3.2 | 0.00 | 0.00 | 0.00 | 1 | 1017.0 |
| 20260906111703 | 24 | 127 | 0.0 | 4.8 | 0.00 | 0.00 | 0.00 | 1 | 1016.9 |
| 20260906111158 | 24 | 110 | 3.2 | 4.8 | 0.00 | 0.00 | 0.00 | 1 | 1017.0 |
| 20260906110653 | 24 | 95 | 3.2 | 4.8 | 0.00 | 0.00 | 0.00 | 1 | 1017.0 |
| 20260906110148 | 24 | 90 | 0.0 | 4.8 | 0.00 | 0.00 | 0.00 | 1 | 1017.0 |
| 20260906105642 | 24 | 115 | 3.2 | 4.8 | 0.00 | 0.00 | 0.00 | 1 | 1016.9 |
| 20260906105138 | 24 | 75 | 3.2 | 3.2 | 0.00 | 0.00 | 0.00 | 1 | 1017.1 |
| 20260906104638 | 24 | 99 | 0.0 | 4.8 | 0.00 | 0.00 | 0.00 | 1 | 1017.0 |
| 20260906104137 | 24 | 90 | 1.6 | 4.8 | 0.00 | 0.00 | 0.00 | 1 | 1017.0 |
| 20260906103635 | 24 | 120 | 3.2 | 8.0 | 0.00 | 0.00 | 0.00 | 1 | 1017.1 |
| 20260906103130 | 24 | 71 | 1.6 | 6.4 | 0.00 | 0.00 | 0.00 | 1 | 1017.2 |
| 20260906102626 | 24 | 106 | 3.2 | 6.4 | 0.00 | 0.00 | 0.00 | 1 | 1017.2 |
| 20260906102120 | 24 | 120 | 4.8 | 9.7 | 0.00 | 0.00 | 0.00 | 1 | 1017.1 |
| 20260906101615 | 25 | 118 | 6.4 | 9.7 | 0.00 | 0.00 | 0.00 | 1 | 1017.0 |
| 20260906101115 | 25 | 114 | 8.0 | 14.5 | 0.00 | 0.00 | 0.00 | 1 | 1017.0 |
| 20260906100610 | 25 | 127 | 4.8 | 12.9 | 0.00 | 0.00 | 0.00 | 1 | 1017.1 |
| 20260906100105 | 25 | 145 | 4.8 | 12.9 | 0.00 | 0.00 | 0.00 | 1 | 1017.1 |
| 20260906095604 | 25 | 112 | 3.2 | 9.7 | 0.00 | 0.00 | 0.00 | 1 | 1017.0 |
| 20260906095100 | 24 | 87 | 6.4 | 11.3 | 0.00 | 0.00 | 0.00 | 1 | 1017.2 |
| 20260906094559 | 24 | 121 | 6.4 | 11.3 | 0.00 | 0.00 | 0.00 | 1 | 1017.0 |
| 20260906094055 | 24 | 93 | 4.8 | 14.5 | 0.00 | 0.00 | 0.00 | 1 | 1016.9 |
| 20260906093551 | 25 | 112 | 6.4 | 9.7 | 0.00 | 0.00 | 0.00 | 1 | 1016.9 |
| 20260906093045 | 25 | 102 | 9.7 | 16.1 | 0.00 | 0.00 | 0.00 | 1 | 1017.0 |
| 20260906092540 | 24 | 166 | 9.7 | 19.3 | 0.00 | 0.00 | 0.00 | 1 | 1016.8 |
| 20260906092036 | 24 | 166 | 4.8 | 11.3 | 0.00 | 0.00 | 0.00 | 1 | 1016.7 |
| 20260906091531 | 25 | 110 | 4.8 | 9.7 | 0.00 | 0.00 | 0.00 | 1 | 1016.9 |
| 20260906091028 | 25 | 127 | 6.4 | 9.7 | 0.00 | 0.00 | 0.00 | 1 | 1016.8 |
| 20260906090522 | 25 | 98 | 6.4 | 11.3 | 0.00 | 0.00 | 0.00 | 1 | 1017.0 |
| 20260906090017 | 25 | 93 | 6.4 | 11.3 | 0.00 | 0.00 | 0.00 | 1 | 1016.9 |
| 20260906085516 | 25 | 98 | 4.8 | 14.5 | 0.00 | 0.00 | 0.00 | 1 | 1016.8 |
| 20260906085015 | 25 | 101 | 4.8 | 14.5 | 0.00 | 0.00 | 0.00 | 1 | 1017.0 |
| 20260906084510 | 25 | 169 | 3.2 | 8.0 | 0.00 | 0.00 | 0.00 | 1 | 1017.1 |
| 20260906084009 | 25 | 119 | 3.2 | 11.3 | 0.00 | 0.00 | 0.00 | 1 | 1017.0 |
| 20260906083505 | 25 | 90 | 4.8 | 9.7 | 0.00 | 0.00 | 0.00 | 1 | 1017.2 |
| 20260906083004 | 25 | 144 | 3.2 | 14.5 | 0.00 | 0.00 | 0.00 | 1 | 1017.0 |
| 20260906082459 | 25 | 159 | 6.4 | 16.1 | 0.00 | 0.00 | 0.00 | 1 | 1017.3 |
| 20260906081955 | 25 | 117 | 4.8 | 17.7 | 0.00 | 0.00 | 0.00 | 1 | 1017.2 |
| 20260906081450 | 25 | 110 | 12.9 | 17.7 | 0.00 | 0.00 | 0.00 | 1 | 1017.3 |
| 20260906080946 | 25 | 83 | 8.0 | 16.1 | 0.00 | 0.00 | 0.00 | 1 | 1017.3 |
| 20260906080442 | 25 | 119 | 9.7 | 19.3 | 0.00 | 0.00 | 0.00 | 1 | 1017.2 |
| 20260906075937 | 25 | 137 | 9.7 | 14.5 | 0.00 | 0.00 | 0.00 | 1 | 1017.2 |
| 20260906075432 | 25 | 73 | 9.7 | 17.7 | 0.00 | 0.00 | 0.00 | 1 | 1017.1 |
| 20260906074927 | 25 | 121 | 16.1 | 20.9 | 0.00 | 0.00 | 0.00 | 1 | 1016.8 |
| 20260906074421 | 25 | 106 | 11.3 | 19.3 | 0.00 | 0.00 | 0.00 | 1 | 1016.9 |
| 20260906073920 | 25 | 118 | 9.7 | 16.1 | 0.00 | 0.00 | 0.00 | 1 | 1016.7 |
| 20260906073415 | 25 | 125 | 8.0 | 16.1 | 0.00 | 0.00 | 0.00 | 1 | 1016.8 |
| 20260906072911 | 25 | 131 | 4.8 | 12.9 | 0.00 | 0.00 | 0.00 | 1 | 1016.7 |
| 20260906072406 | 25 | 101 | 4.8 | 14.5 | 0.00 | 0.00 | 0.00 | 1 | 1016.7 |
| 20260906071903 | 25 | 117 | 8.0 | 11.3 | 0.00 | 0.00 | 0.00 | 1 | 1016.7 |
| 20260906071358 | 25 | 142 | 9.7 | 16.1 | 0.00 | 0.00 | 0.00 | 1 | 1016.7 |
| 20260906070853 | 25 | 98 | 8.0 | 14.5 | 0.00 | 0.00 | 0.00 | 1 | 1016.9 |
| 20260906070349 | 25 | 132 | 8.0 | 14.5 | 0.00 | 0.00 | 0.00 | 1 | 1016.8 |
| 20260906065845 | 25 | 121 | 3.2 | 19.3 | 0.00 | 0.00 | 0.00 | 1 | 1016.7 |
| 20260906065339 | 25 | 94 | 4.8 | 16.1 | 0.00 | 0.00 | 0.00 | 1 | 1016.8 |
| 20260906064834 | 25 | 152 | 4.8 | 16.1 | 0.00 | 0.00 | 0.00 | 1 | 1016.8 |
| 20260906064330 | 25 | 141 | 4.8 | 14.5 | 0.00 | 0.00 | 0.00 | 1 | 1016.7 |
| 20260906063824 | 25 | 112 | 4.8 | 14.5 | 0.00 | 0.00 | 0.00 | 1 | 1016.7 |
| 20260906063320 | 25 | 128 | 3.2 | 9.7 | 0.00 | 0.00 | 0.00 | 1 | 1016.5 |
| 20260906062815 | 25 | 112 | 3.2 | 17.7 | 0.00 | 0.00 | 0.00 | 1 | 1016.5 |
| 20260906062314 | 25 | 117 | 3.2 | 14.5 | 0.00 | 0.00 | 0.00 | 1 | 1016.3 |
| 20260906061810 | 25 | 90 | 11.3 | 14.5 | 0.00 | 0.00 | 0.00 | 1 | 1016.4 |
| 20260906061307 | 25 | 106 | 8.0 | 11.3 | 0.00 | 0.00 | 0.00 | 1 | 1016.4 |
| 20260906060801 | 25 | 160 | 4.8 | 8.0 | 0.00 | 0.00 | 0.00 | 1 | 1016.5 |
| 20260906060259 | 25 | 109 | 6.4 | 12.9 | 0.00 | 0.00 | 0.00 | 1 | 1016.2 |
| 20260906055754 | 25 | 90 | 1.6 | 16.1 | 0.00 | 0.00 | 0.00 | 1 | 1016.5 |
| 20260906055250 | 25 | 117 | 3.2 | 12.9 | 0.00 | 0.00 | 0.00 | 1 | 1016.5 |
| 20260906054745 | 25 | 160 | 1.6 | 8.0 | 0.00 | 0.00 | 0.00 | 1 | 1016.5 |
| 20260906054240 | 25 | 142 | 6.4 | 17.7 | 0.00 | 0.00 | 0.00 | 1 | 1016.4 |
| 20260906053737 | 25 | 132 | 11.3 | 17.7 | 0.00 | 0.00 | 0.00 | 1 | 1016.5 |
| 20260906053232 | 25 | 107 | 4.8 | 14.5 | 0.00 | 0.00 | 0.00 | 1 | 1016.4 |
| 20260906052727 | 25 | 101 | 8.0 | 12.9 | 0.00 | 0.00 | 0.00 | 1 | 1016.7 |
| 20260906052223 | 25 | 113 | 8.0 | 14.5 | 0.00 | 0.00 | 0.00 | 1 | 1016.7 |
| 20260906051720 | 25 | 110 | 8.0 | 19.3 | 0.00 | 0.00 | 0.00 | 1 | 1016.5 |
| 20260906051219 | 25 | 103 | 8.0 | 12.9 | 0.00 | 0.00 | 0.00 | 1 | 1016.5 |
| 20260906050715 | 25 | 96 | 8.0 | 16.1 | 0.00 | 0.00 | 0.00 | 1 | 1016.8 |
| 20260906050210 | 25 | 75 | 8.0 | 16.1 | 0.00 | 0.00 | 0.00 | 1 | 1016.8 |
| 20260906045708 | 25 | 105 | 9.7 | 14.5 | 0.00 | 0.00 | 0.00 | 1 | 1016.8 |
| 20260906045203 | 25 | 96 | 8.0 | 14.5 | 0.00 | 0.00 | 0.00 | 1 | 1016.9 |
| 20260906044659 | 25 | 106 | 6.4 | 16.1 | 0.00 | 0.00 | 0.00 | 1 | 1017.0 |
| 20260906044154 | 25 | 110 | 9.7 | 14.5 | 0.00 | 0.00 | 0.00 | 1 | 1017.0 |
| 20260906043650 | 25 | 122 | 14.5 | 14.5 | 0.00 | 0.00 | 0.00 | 1 | 1016.8 |
| 20260906043145 | 25 | 93 | 4.8 | 14.5 | 0.00 | 0.00 | 0.00 | 1 | 1017.1 |
| 20260906042645 | 25 | 110 | 6.4 | 11.3 | 0.00 | 0.00 | 0.00 | 1 | 1017.1 |
| 20260906042139 | 25 | 99 | 8.0 | 14.5 | 0.00 | 0.00 | 0.00 | 1 | 1017.3 |
| 20260906041635 | 25 | 111 | 17.7 | 17.7 | 0.00 | 0.00 | 0.00 | 1 | 1017.4 |
| 20260906041130 | 25 | 103 | 14.5 | 17.7 | 0.00 | 0.00 | 0.00 | 1 | 1017.3 |
| 20260906040625 | 25 | 94 | 8.0 | 11.3 | 0.00 | 0.00 | 0.00 | 1 | 1017.4 |
| 20260906040121 | 25 | 94 | 4.8 | 12.9 | 0.00 | 0.00 | 0.00 | 1 | 1017.4 |
| 20260906035616 | 25 | 97 | 9.7 | 12.9 | 0.00 | 0.00 | 0.00 | 1 | 1017.5 |
| 20260906035112 | 25 | 94 | 8.0 | 14.5 | 0.00 | 0.00 | 0.00 | 1 | 1017.4 |
| 20260906034612 | 25 | 103 | 9.7 | 14.5 | 0.00 | 0.00 | 0.00 | 1 | 1017.6 |
| 20260906034107 | 25 | 115 | 9.7 | 12.9 | 0.00 | 0.00 | 0.00 | 1 | 1017.5 |
| 20260906033602 | 25 | 87 | 11.3 | 17.7 | 0.00 | 0.00 | 0.00 | 1 | 1017.5 |
| 20260906033057 | 26 | 99 | 9.7 | 19.3 | 0.00 | 0.00 | 0.00 | 1 | 1017.5 |
| 20260906032553 | 26 | 99 | 12.9 | 17.7 | 0.00 | 0.00 | 0.00 | 1 | 1017.3 |
| 20260906032048 | 26 | 115 | 14.5 | 22.5 | 0.00 | 0.00 | 0.00 | 1 | 1017.6 |
| 20260906031544 | 26 | 100 | 16.1 | 16.1 | 0.00 | 0.00 | 0.00 | 1 | 1017.6 |
| 20260906031039 | 26 | 111 | 14.5 | 22.5 | 0.00 | 0.00 | 0.00 | 1 | 1017.5 |
| 20260906030538 | 26 | 114 | 8.0 | 19.3 | 0.00 | 0.00 | 0.00 | 1 | 1017.6 |
| 20260906030037 | 26 | 112 | 14.5 | 25.7 | 0.00 | 0.00 | 0.00 | 1 | 1017.4 |
| 20260906025532 | 26 | 98 | 19.3 | 29.0 | 0.00 | 0.00 | 0.00 | 1 | 1017.5 |
| 20260906025030 | 26 | 92 | 8.0 | 19.3 | 0.00 | 0.00 | 0.00 | 1 | 1017.5 |
| 20260906024525 | 26 | 113 | 24.1 | 25.7 | 0.00 | 0.00 | 0.00 | 1 | 1017.3 |
| 20260906024020 | 26 | 77 | 11.3 | 38.6 | 0.00 | 0.00 | 0.00 | 1 | 1017.3 |
| 20260906023516 | 26 | 69 | 22.5 | 32.2 | 0.00 | 0.00 | 0.00 | 1 | 1017.1 |
| 20260906023011 | 26 | 100 | 19.3 | 27.4 | 0.00 | 0.00 | 0.00 | 1 | 1017.0 |
| 20260906022506 | 26 | 90 | 14.5 | 30.6 | 0.00 | 0.00 | 0.00 | 1 | 1016.8 |
| 20260906022001 | 27 | 57 | 22.5 | 33.8 | 0.00 | 0.00 | 0.00 | 1 | 1016.8 |
| 20260906021456 | 27 | 96 | 19.3 | 30.6 | 0.00 | 0.00 | 0.00 | 1 | 1016.5 |
| 20260906020951 | 27 | 66 | 9.7 | 20.9 | 0.00 | 0.00 | 0.00 | 1 | 1016.7 |
| 20260906020445 | 27 | 62 | 20.9 | 37.0 | 0.00 | 0.00 | 0.00 | 1 | 1016.4 |
| 20260906015944 | 27 | 69 | 11.3 | 27.4 | 0.00 | 0.00 | 0.00 | 1 | 1016.5 |
| 20260906015444 | 27 | 90 | 25.7 | 32.2 | 0.00 | 0.00 | 0.00 | 1 | 1016.5 |
| 20260906014944 | 27 | 79 | 11.3 | 30.6 | 0.00 | 0.00 | 0.00 | 1 | 1016.4 |
| 20260906014438 | 27 | 68 | 14.5 | 33.8 | 0.00 | 0.00 | 0.00 | 1 | 1016.2 |
| 20260906013934 | 27 | 50 | 17.7 | 30.6 | 0.00 | 0.00 | 0.00 | 1 | 1016.2 |
| 20260906013429 | 27 | 87 | 12.9 | 29.0 | 0.00 | 0.00 | 0.00 | 1 | 1016.5 |
| 20260906012925 | 27 | 79 | 11.3 | 35.4 | 0.00 | 0.00 | 0.00 | 1 | 1016.5 |
| 20260906012425 | 27 | 95 | 12.9 | 25.7 | 0.00 | 0.00 | 0.00 | 1 | 1016.4 |
| 20260906011924 | 27 | 65 | 11.3 | 37.0 | 0.00 | 0.00 | 0.00 | 1 | 1016.4 |
| 20260906011420 | 27 | 69 | 9.7 | 24.1 | 0.00 | 0.00 | 0.00 | 1 | 1016.5 |
| 20260906010916 | 27 | 81 | 17.7 | 24.1 | 0.00 | 0.00 | 0.00 | 1 | 1016.7 |
| 20260906010411 | 27 | 55 | 19.3 | 30.6 | 0.00 | 0.00 | 0.00 | 1 | 1016.5 |
| 20260906005907 | 27 | 37 | 8.0 | 37.0 | 0.00 | 0.00 | 0.00 | 1 | 1016.4 |
| 20260906005406 | 27 | 34 | 17.7 | 30.6 | 0.00 | 0.00 | 0.00 | 1 | 1016.5 |
| 20260906004904 | 27 | 36 | 14.5 | 27.4 | 0.00 | 0.00 | 0.00 | 1 | 1016.3 |
| 20260906004359 | 27 | 66 | 9.7 | 33.8 | 0.00 | 0.00 | 0.00 | 1 | 1016.1 |
| 20260906003855 | 27 | 61 | 16.1 | 32.2 | 0.00 | 0.00 | 0.00 | 1 | 1016.1 |
| 20260906003350 | 28 | 60 | 6.4 | 24.1 | 0.00 | 0.00 | 0.00 | 1 | 1016.2 |
| 20260906002846 | 28 | 56 | 6.4 | 17.7 | 0.00 | 0.00 | 0.00 | 1 | 1016.0 |
| 20260906002344 | 27 | 78 | 16.1 | 19.3 | 0.00 | 0.00 | 0.00 | 1 | 1016.2 |
| 20260906001840 | 27 | 73 | 11.3 | 27.4 | 0.00 | 0.00 | 0.00 | 1 | 1016.4 |
| 20260906001336 | 28 | 35 | 22.5 | 48.3 | 0.00 | 0.00 | 0.00 | 1 | 1016.4 |
| 20260906000831 | 28 | 50 | 19.3 | 29.0 | 0.00 | 0.00 | 0.00 | 1 | 1016.7 |
| 20260906000326 | 29 | 50 | 9.7 | 35.4 | 0.00 | 0.00 | 0.00 | 1 | 1016.8 |
| 20260905235826 | 30 | 39 | 8.0 | 19.3 | 0.00 | 0.00 | 0.00 | 1 | 1016.1 |
| 20260905235326 | 30 | 35 | 4.8 | 11.3 | 0.00 | 0.00 | 0.00 | 1 | 1015.9 |
| 20260905234821 | 30 | 27 | 8.0 | 14.5 | 0.00 | 0.00 | 0.00 | 1 | 1016.0 |
| 20260905234316 | 30 | 18 | 11.3 | 17.7 | 0.00 | 0.00 | 0.00 | 1 | 1015.8 |
| 20260905233811 | 30 | 0 | 6.4 | 19.3 | 0.00 | 0.00 | 0.00 | 1 | 1015.6 |
| 20260905233306 | 31 | 359 | 9.7 | 19.3 | 0.00 | 0.00 | 0.00 | 1 | 1015.7 |
| 20260905232805 | 33 | 353 | 6.4 | 12.9 | 0.00 | 0.00 | 0.00 | 1 | 1015.8 |
| 20260905232301 | 33 | 2 | 4.8 | 12.9 | 0.00 | 0.00 | 0.00 | 1 | 1015.7 |
| 20260905231757 | 35 | 281 | 0.0 | 6.4 | 0.00 | 0.00 | 0.00 | 1 | 1015.7 |
| 20260905231252 | 33 | 270 | 0.0 | 4.8 | 0.00 | 0.00 | 0.00 | 1 | 1015.5 |
| 20260905230748 | 33 | 295 | 8.0 | 12.9 | 0.00 | 0.00 | 0.00 | 1 | 1015.8 |
| 20260905230246 | 33 | 304 | 4.8 | 6.4 | 0.00 | 0.00 | 0.00 | 1 | 1015.7 |
| 20260905225746 | 33 | 334 | 1.6 | 9.7 | 0.00 | 0.00 | 0.00 | 1 | 1015.8 |
| 20260905225241 | 34 | 298 | 12.9 | 14.5 | 0.00 | 0.00 | 0.00 | 1 | 1015.7 |
| 20260905224740 | 34 | 24 | 0.0 | 11.3 | 0.00 | 0.00 | 0.00 | 1 | 1015.6 |
| 20260905224236 | 35 | 0 | 8.0 | 12.9 | 0.00 | 0.00 | 0.00 | 1 | 1015.5 |
| 20260905223731 | 34 | 275 | 9.7 | 9.7 | 0.00 | 0.00 | 0.00 | 1 | 1015.3 |
| 20260905223228 | 33 | 283 | 11.3 | 22.5 | 0.00 | 0.00 | 0.00 | 1 | 1015.5 |
| 20260905222724 | 32 | 248 | 8.0 | 22.5 | 0.00 | 0.00 | 0.00 | 1 | 1015.4 |
| 20260905222223 | 35 | 296 | 11.3 | 32.2 | 0.00 | 0.00 | 0.00 | 1 | 1015.4 |
| 20260905221719 | 35 | 222 | 16.1 | 30.6 | 0.00 | 0.00 | 0.00 | 1 | 1015.1 |
| 20260905221216 | 36 | 251 | 24.1 | 27.4 | 0.00 | 0.00 | 0.00 | 1 | 1015.1 |
| 20260905220711 | 36 | 250 | 11.3 | 16.1 | 0.00 | 0.00 | 0.00 | 1 | 1014.6 |
| 20260905220207 | 36 | 234 | 9.7 | 19.3 | 0.00 | 0.00 | 0.00 | 1 | 1014.8 |
| 20260905215706 | 37 | 231 | 8.0 | 17.7 | 0.00 | 0.00 | 0.00 | 1 | 1014.5 |
| 20260905215202 | 38 | 209 | 4.8 | 14.5 | 0.00 | 0.00 | 0.00 | 1 | 1014.4 |
| 20260905214658 | 38 | 168 | 1.6 | 11.3 | 0.00 | 0.00 | 0.00 | 1 | 1014.2 |
| 20260905214153 | 38 | 123 | 3.2 | 16.1 | 0.00 | 0.00 | 0.00 | 1 | 1014.1 |
| 20260905213648 | 38 | 233 | 8.0 | 14.5 | 0.00 | 0.00 | 0.00 | 1 | 1014.0 |
| 20260905213144 | 38 | 134 | 6.4 | 11.3 | 0.00 | 0.00 | 0.00 | 1 | 1014.3 |
| 20260905212639 | 38 | 152 | 3.2 | 19.3 | 0.00 | 0.00 | 0.00 | 1 | 1014.2 |
| 20260905212138 | 38 | 165 | 8.0 | 20.9 | 0.00 | 0.00 | 0.00 | 1 | 1014.4 |
| 20260905211633 | 38 | 205 | 6.4 | 9.7 | 0.00 | 0.00 | 0.00 | 1 | 1014.2 |
| 20260905211128 | 38 | 227 | 11.3 | 14.5 | 0.00 | 0.00 | 0.00 | 1 | 1014.4 |
| 20260905210625 | 38 | 192 | 3.2 | 12.9 | 0.00 | 0.00 | 0.00 | 1 | 1014.4 |
| 20260905210119 | 37 | 180 | 3.2 | 17.7 | 0.00 | 0.00 | 0.00 | 1 | 1014.4 |
| 20260905205619 | 37 | 180 | 9.7 | 17.7 | 0.00 | 0.00 | 0.00 | 1 | 1014.5 |
| 20260905205118 | 37 | 184 | 3.2 | 8.0 | 0.00 | 0.00 | 0.00 | 1 | 1014.4 |
| 20260905204612 | 37 | 198 | 0.0 | 11.3 | 0.00 | 0.00 | 0.00 | 1 | 1014.3 |
| 20260905204108 | 37 | 157 | 0.0 | 11.3 | 0.00 | 0.00 | 0.00 | 1 | 1014.4 |